createdAt,value
2023-04-01T00:00:20.721Z,0.68
2023-04-01T00:02:50.981Z,0.90
2023-04-01T00:05:22.306Z,0.75
2023-04-01T00:07:52.042Z,0.60
2023-04-01T00:10:21.575Z,0.50
2023-04-01T00:12:50.761Z,0.50
2023-04-01T00:15:20.057Z,0.73
2023-04-01T00:17:49.485Z,0.50
2023-04-01T00:20:20.545Z,0.57
2023-04-01T00:22:49.799Z,0.60
2023-04-01T00:25:19.615Z,0.60
2023-04-01T00:27:48.861Z,0.60
2023-04-01T00:30:18.356Z,0.52
2023-04-01T00:32:47.538Z,0.60
2023-04-01T00:35:16.778Z,0.75
2023-04-01T00:37:48.453Z,0.65
2023-04-01T00:40:32.986Z,0.60
2023-04-01T00:43:02.581Z,0.70
2023-04-01T00:45:37.536Z,0.68
2023-04-01T00:48:11.389Z,0.60
2023-04-01T00:50:43.251Z,0.80
2023-04-01T00:53:14.405Z,0.77
2023-04-01T00:55:51.541Z,0.57
2023-04-01T00:58:26.153Z,0.77
2023-04-01T01:00:57.060Z,0.90
2023-04-01T01:03:26.485Z,0.70
2023-04-01T01:06:26.210Z,0.70
2023-04-01T01:09:15.303Z,0.63
2023-04-01T01:11:49.604Z,0.70
2023-04-01T01:14:32.051Z,0.60
2023-04-01T01:17:11.341Z,0.70
2023-04-01T01:20:26.010Z,0.52
2023-04-01T01:23:23.577Z,0.60
2023-04-01T01:26:09.492Z,0.82
2023-04-01T01:28:53.702Z,1.10
2023-04-01T01:31:30.732Z,0.60
2023-04-01T01:34:16.526Z,0.82
2023-04-01T01:36:51.544Z,0.70
2023-04-01T01:39:22.178Z,0.77
2023-04-01T01:41:52.333Z,0.60
2023-04-01T01:44:23.705Z,0.70
2023-04-01T01:46:53.155Z,0.70
2023-04-01T01:49:23.415Z,0.70
2023-04-01T01:51:54.105Z,0.80
2023-04-01T01:54:23.410Z,1.00
2023-04-01T01:57:02.512Z,0.70
2023-04-01T01:59:32.861Z,0.75
2023-04-01T02:02:08.592Z,0.73
2023-04-01T02:04:40.664Z,0.80
2023-04-01T02:07:14.910Z,0.80
2023-04-01T02:09:44.642Z,0.73
2023-04-01T02:12:17.979Z,0.60
2023-04-01T02:14:51.784Z,0.68
2023-04-01T02:17:22.747Z,0.88
2023-04-01T02:19:56.995Z,0.52
2023-04-01T02:22:31.966Z,0.73
2023-04-01T02:25:07.097Z,0.68
2023-04-01T02:27:36.386Z,0.68
2023-04-01T02:30:07.385Z,0.80
2023-04-01T02:32:38.987Z,0.80
2023-04-01T02:35:11.653Z,0.70
2023-04-01T02:37:44.590Z,0.85
2023-04-01T02:40:16.453Z,0.73
2023-04-01T02:42:46.004Z,0.50
2023-04-01T02:45:16.301Z,0.75
2023-04-01T02:47:45.802Z,0.60
2023-04-01T02:50:15.439Z,0.70
2023-04-01T02:52:46.139Z,0.50
2023-04-01T02:55:15.951Z,0.80
2023-04-01T02:57:45.213Z,0.70
2023-04-01T03:00:15.814Z,0.60
2023-04-01T03:02:45.488Z,0.60
2023-04-01T03:05:14.868Z,0.60
2023-04-01T03:07:45.151Z,0.57
2023-04-01T03:10:16.178Z,0.60
2023-04-01T03:12:45.384Z,0.77
2023-04-01T03:15:16.525Z,0.75
2023-04-01T03:17:47.924Z,0.70
2023-04-01T03:20:17.855Z,0.60
2023-04-01T03:22:47.046Z,0.70
2023-04-01T03:25:17.727Z,0.60
2023-04-01T03:27:47.028Z,0.60
2023-04-01T03:30:16.484Z,0.60
2023-04-01T03:32:52.382Z,0.82
2023-04-01T03:35:21.828Z,0.70
2023-04-01T03:37:52.445Z,0.60
2023-04-01T03:40:23.596Z,0.60
2023-04-01T03:42:53.266Z,0.55
2023-04-01T03:45:22.608Z,0.82
2023-04-01T03:47:52.407Z,0.55
2023-04-01T03:50:21.836Z,0.55
2023-04-01T03:52:51.280Z,0.63
2023-04-01T03:55:20.506Z,0.68
2023-04-01T03:57:52.135Z,0.50
2023-04-01T04:00:21.978Z,0.65
2023-04-01T04:02:57.745Z,0.35
2023-04-01T04:05:33.495Z,0.55
2023-04-01T04:08:03.460Z,0.43
2023-04-01T04:10:32.805Z,0.60
2023-04-01T04:13:03.450Z,0.55
2023-04-01T04:15:34.599Z,0.60
2023-04-01T04:18:04.064Z,0.65
2023-04-01T04:20:33.287Z,0.35
2023-04-01T04:23:03.117Z,0.65
2023-04-01T04:25:32.609Z,0.60
2023-04-01T04:28:03.504Z,0.40
2023-04-01T04:30:32.717Z,0.43
2023-04-01T04:33:02.007Z,0.68
2023-04-01T04:35:31.334Z,0.38
2023-04-01T04:38:00.705Z,0.50
2023-04-01T04:40:29.958Z,0.55
2023-04-01T04:42:59.136Z,0.40
2023-04-01T04:45:29.920Z,0.40
2023-04-01T04:47:59.625Z,0.65
2023-04-01T04:50:28.959Z,0.70
2023-04-01T04:52:58.279Z,0.40
2023-04-01T04:55:27.436Z,0.63
2023-04-01T04:58:16.891Z,0.47
2023-04-01T05:00:49.022Z,0.30
2023-04-01T05:03:26.219Z,0.47
2023-04-01T05:05:56.505Z,0.50
2023-04-01T05:08:25.731Z,0.38
2023-04-01T05:10:54.920Z,0.47
2023-04-01T05:13:24.417Z,0.60
2023-04-01T05:15:55.746Z,0.40
2023-04-01T05:18:25.311Z,0.43
2023-04-01T05:20:56.444Z,0.40
2023-04-01T05:23:25.616Z,0.40
2023-04-01T05:25:55.019Z,0.40
2023-04-01T05:28:24.737Z,0.28
2023-04-01T05:30:56.329Z,0.32
2023-04-01T05:33:33.098Z,0.60
2023-04-01T05:36:09.224Z,0.90
2023-04-01T05:38:38.747Z,0.70
2023-04-01T05:41:10.525Z,0.60
2023-04-01T05:43:44.479Z,0.30
2023-04-01T05:46:34.179Z,0.45
2023-04-01T05:49:14.222Z,0.70
2023-04-01T05:51:43.633Z,0.60
2023-04-01T05:54:13.029Z,0.32
2023-04-01T05:56:51.041Z,0.60
2023-04-01T05:59:21.562Z,0.50
2023-04-01T06:01:52.516Z,0.50
2023-04-01T06:04:22.925Z,0.77
2023-04-01T06:06:53.926Z,0.60
2023-04-01T06:09:30.276Z,0.70
2023-04-01T06:12:22.452Z,0.80
2023-04-01T06:15:07.797Z,0.73
2023-04-01T06:18:01.680Z,0.88
2023-04-01T06:20:42.427Z,0.90
2023-04-01T06:23:37.537Z,0.77
2023-04-01T06:26:20.448Z,0.60
2023-04-01T06:29:11.262Z,0.80
2023-04-01T06:32:07.109Z,0.88
2023-04-01T06:35:06.890Z,0.70
2023-04-01T06:38:04.542Z,1.05
2023-04-01T06:41:11.062Z,0.70
2023-04-01T06:43:50.567Z,0.60
2023-04-01T06:47:00.933Z,0.70
2023-04-01T06:49:57.977Z,0.93
2023-04-01T06:52:54.120Z,1.40
2023-04-01T06:55:47.185Z,0.80
2023-04-01T06:58:44.778Z,0.70
2023-04-01T07:01:20.250Z,0.50
2023-04-01T07:03:55.614Z,0.82
2023-04-01T07:06:31.009Z,1.00
2023-04-01T07:09:06.650Z,0.85
2023-04-01T07:12:01.136Z,0.95
2023-04-01T07:14:52.515Z,0.80
2023-04-01T07:17:25.505Z,1.00
2023-04-01T07:20:01.460Z,0.90
2023-04-01T07:22:35.847Z,1.25
2023-04-01T07:25:29.818Z,0.93
2023-04-01T07:28:19.288Z,0.90
2023-04-01T07:31:08.612Z,0.98
2023-04-01T07:33:45.953Z,1.05
2023-04-01T07:36:21.406Z,1.42
2023-04-01T07:39:01.736Z,1.48
2023-04-01T07:41:58.120Z,1.25
2023-04-01T07:44:40.064Z,1.38
2023-04-01T07:47:22.951Z,1.80
2023-04-01T07:50:04.656Z,4.10
2023-04-01T07:52:44.336Z,5.05
2023-04-01T07:55:31.731Z,3.80
2023-04-01T07:58:09.933Z,3.28
2023-04-01T08:00:50.905Z,3.28
2023-04-01T08:03:54.960Z,2.63
2023-04-01T08:06:31.021Z,2.50
2023-04-01T08:09:08.244Z,2.22
2023-04-01T08:12:06.592Z,2.95
2023-04-01T08:15:08.174Z,2.05
2023-04-01T08:18:14.049Z,1.77
2023-04-01T08:20:47.854Z,2.00
2023-04-01T08:23:19.533Z,1.90
2023-04-01T08:25:57.341Z,1.80
2023-04-01T08:28:35.204Z,1.55
2023-04-01T08:31:15.044Z,1.67
2023-04-01T08:33:49.781Z,1.73
2023-04-01T08:36:23.416Z,1.85
2023-04-01T08:39:10.551Z,1.90
2023-04-01T08:42:08.321Z,1.75
2023-04-01T08:45:01.669Z,1.50
2023-04-01T08:48:09.839Z,1.65
2023-04-01T08:51:12.019Z,1.83
2023-04-01T08:54:06.560Z,1.50
2023-04-01T08:56:42.502Z,1.30
2023-04-01T08:59:32.238Z,1.92
2023-04-01T09:02:33.645Z,1.50
2023-04-01T09:06:06.481Z,1.52
2023-04-01T09:08:55.109Z,1.45
2023-04-01T09:11:33.285Z,1.38
2023-04-01T09:14:43.502Z,1.25
2023-04-01T09:18:11.285Z,1.55
2023-04-01T09:21:12.751Z,1.30
2023-04-01T09:24:22.309Z,1.00
2023-04-01T09:27:28.594Z,1.45
2023-04-01T09:30:22.053Z,1.05
2023-04-01T09:33:27.206Z,1.10
2023-04-01T09:36:09.934Z,1.23
2023-04-01T09:38:52.543Z,1.08
2023-04-01T09:41:30.679Z,1.00
2023-04-01T09:44:17.770Z,1.10
2023-04-01T09:47:28.771Z,0.95
2023-04-01T09:50:26.357Z,0.93
2023-04-01T09:53:06.151Z,0.80
2023-04-01T09:56:10.972Z,0.80
2023-04-01T09:59:26.112Z,0.82
2023-04-01T10:02:53.194Z,1.00
2023-04-01T10:05:55.844Z,1.08
2023-04-01T10:08:42.134Z,0.80
2023-04-01T10:11:45.008Z,0.98
2023-04-01T10:14:56.649Z,0.90
2023-04-01T10:17:54.562Z,0.73
2023-04-01T10:20:50.506Z,0.90
2023-04-01T10:23:49.526Z,0.88
2023-04-01T10:26:59.270Z,0.80
2023-04-01T10:30:17.032Z,0.77
2023-04-01T10:33:41.326Z,0.75
2023-04-01T10:36:44.173Z,0.88
2023-04-01T10:39:40.126Z,0.98
2023-04-01T10:42:58.689Z,0.65
2023-04-01T10:46:20.853Z,0.60
2023-04-01T10:49:29.693Z,0.70
2023-04-01T10:52:51.279Z,0.70
2023-04-01T10:55:52.577Z,0.60
2023-04-01T10:59:18.398Z,0.63
2023-04-01T11:02:49.034Z,0.50
2023-04-01T11:06:23.538Z,0.60
2023-04-01T11:09:38.462Z,0.82
2023-04-01T11:12:49.509Z,0.60
2023-04-01T11:15:43.453Z,0.45
2023-04-01T11:18:50.460Z,0.52
2023-04-01T11:21:57.545Z,0.90
2023-04-01T11:25:14.202Z,0.70
2023-04-01T11:28:08.227Z,0.55
2023-04-01T11:30:55.629Z,0.55
2023-04-01T11:33:31.018Z,0.63
2023-04-01T11:36:09.141Z,0.70
2023-04-01T11:39:02.866Z,0.50
2023-04-01T11:41:59.549Z,0.60
2023-04-01T11:44:56.014Z,0.45
2023-04-01T11:47:58.846Z,0.50
2023-04-01T11:50:42.384Z,0.55
2023-04-01T11:53:26.439Z,0.43
2023-04-01T11:56:04.550Z,0.60
2023-04-01T11:59:15.500Z,0.40
2023-04-01T12:01:56.938Z,0.57
2023-04-01T12:04:58.175Z,0.40
2023-04-01T12:07:46.426Z,0.30
2023-04-01T12:10:20.886Z,0.40
2023-04-01T12:13:02.099Z,0.60
2023-04-01T12:15:39.365Z,0.40
2023-04-01T12:18:18.525Z,0.60
2023-04-01T12:20:54.411Z,0.38
2023-04-01T12:23:49.044Z,0.43
2023-04-01T12:26:51.971Z,0.30
2023-04-01T12:29:51.666Z,0.40
2023-04-01T12:32:34.254Z,0.50
2023-04-01T12:35:26.733Z,0.40
2023-04-01T12:38:21.993Z,0.50
2023-04-01T12:41:05.741Z,0.50
2023-04-01T12:43:58.764Z,0.40
2023-04-01T12:46:35.288Z,0.40
2023-04-01T12:49:32.841Z,0.50
2023-04-01T12:52:13.559Z,0.35
2023-04-01T12:55:24.084Z,0.57
2023-04-01T12:58:31.421Z,0.30
2023-04-01T13:01:22.093Z,0.52
2023-04-01T13:04:12.969Z,0.30
2023-04-01T13:07:01.811Z,0.50
2023-04-01T13:09:45.432Z,0.22
2023-04-01T13:12:38.242Z,0.40
2023-04-01T13:15:22.571Z,0.50
2023-04-01T13:17:59.602Z,0.32
2023-04-01T13:20:44.319Z,0.30
2023-04-01T13:23:25.901Z,0.30
2023-04-01T13:26:14.257Z,0.20
2023-04-01T13:28:53.108Z,0.40
2023-04-01T13:31:37.384Z,0.28
2023-04-01T13:34:20.156Z,0.40
2023-04-01T13:37:02.738Z,0.45
2023-04-01T13:40:01.604Z,0.35
2023-04-01T13:42:35.986Z,0.50
2023-04-01T13:45:14.507Z,0.30
2023-04-01T13:48:15.028Z,0.30
2023-04-01T13:51:03.585Z,0.30
2023-04-01T13:53:52.085Z,0.22
2023-04-01T13:56:44.960Z,0.30
2023-04-01T13:59:43.005Z,0.20
2023-04-01T14:02:36.099Z,0.20
2023-04-01T14:05:29.489Z,0.30
2023-04-01T14:08:20.018Z,0.32
2023-04-01T14:11:02.157Z,0.52
2023-04-01T14:13:39.845Z,0.40
2023-04-01T14:16:47.144Z,0.28
2023-04-01T14:19:34.587Z,0.30
2023-04-01T14:22:14.355Z,0.47
2023-04-01T14:25:05.680Z,0.30
2023-04-01T14:27:50.922Z,0.30
2023-04-01T14:30:38.312Z,0.22
2023-04-01T14:33:22.645Z,0.45
2023-04-01T14:36:03.271Z,0.30
2023-04-01T14:38:48.799Z,0.17
2023-04-01T14:41:33.653Z,0.57
2023-04-01T14:44:40.483Z,0.30
2023-04-01T14:47:36.995Z,0.20
2023-04-01T14:50:10.648Z,0.20
2023-04-01T14:52:44.254Z,0.20
2023-04-01T14:55:46.784Z,0.45
2023-04-01T14:58:19.726Z,0.22
2023-04-01T15:01:00.673Z,0.20
2023-04-01T15:03:35.046Z,0.30
2023-04-01T15:06:29.923Z,0.20
2023-04-01T15:09:04.122Z,0.22
2023-04-01T15:11:46.177Z,0.20
2023-04-01T15:14:39.501Z,0.20
2023-04-01T15:17:27.850Z,0.30
2023-04-01T15:20:13.347Z,0.10
2023-04-01T15:23:01.046Z,0.32
2023-04-01T15:25:53.556Z,0.20
2023-04-01T15:28:33.210Z,0.30
2023-04-01T15:31:12.210Z,0.25
2023-04-01T15:34:05.907Z,0.20
2023-04-01T15:36:42.199Z,0.25
2023-04-01T15:39:18.052Z,0.20
2023-04-01T15:41:59.505Z,0.30
2023-04-01T15:44:55.863Z,0.20
2023-04-01T15:47:42.347Z,0.20
2023-04-01T15:50:36.589Z,0.20
2023-04-01T15:53:26.416Z,0.30
2023-04-01T15:56:00.160Z,0.40
2023-04-01T15:58:46.723Z,0.20
2023-04-01T16:01:31.381Z,0.20
2023-04-01T16:04:17.726Z,0.10
2023-04-01T16:07:03.464Z,0.20
2023-04-01T16:10:07.175Z,0.15
2023-04-01T16:12:51.074Z,0.30
2023-04-01T16:15:29.064Z,0.30
2023-04-01T16:18:29.687Z,0.20
2023-04-01T16:21:05.101Z,0.20
2023-04-01T16:23:41.941Z,0.15
2023-04-01T16:26:18.207Z,0.13
2023-04-01T16:28:56.001Z,0.20
2023-04-01T16:31:39.997Z,0.20
2023-04-01T16:34:17.020Z,0.20
2023-04-01T16:36:52.936Z,0.20
2023-04-01T16:39:32.284Z,0.28
2023-04-01T16:42:18.957Z,0.20
2023-04-01T16:44:56.326Z,0.28
2023-04-01T16:47:32.577Z,0.10
2023-04-01T16:50:09.113Z,0.20
2023-04-01T16:53:01.118Z,0.20
2023-04-01T16:55:44.713Z,0.10
2023-04-01T16:58:21.337Z,0.25
2023-04-01T17:00:53.763Z,0.30
2023-04-01T17:03:29.645Z,0.10
2023-04-01T17:06:16.736Z,0.10
2023-04-01T17:09:15.882Z,0.30
2023-04-01T17:11:52.096Z,0.20
2023-04-01T17:14:27.705Z,0.20
2023-04-01T17:17:12.197Z,0.13
2023-04-01T17:20:08.366Z,0.17
2023-04-01T17:22:46.881Z,0.20
2023-04-01T17:25:32.005Z,0.20
2023-04-01T17:28:07.737Z,0.25
2023-04-01T17:30:41.416Z,0.15
2023-04-01T17:33:35.794Z,0.10
2023-04-01T17:36:14.770Z,0.20
2023-04-01T17:38:59.129Z,0.20
2023-04-01T17:41:40.993Z,0.30
2023-04-01T17:44:22.862Z,0.10
2023-04-01T17:47:17.554Z,0.20
2023-04-01T17:49:56.972Z,0.20
2023-04-01T17:52:31.736Z,0.10
2023-04-01T17:55:17.653Z,0.10
2023-04-01T17:57:54.907Z,0.10
2023-04-01T18:00:46.197Z,0.17
2023-04-01T18:03:30.793Z,0.20
2023-04-01T18:06:09.014Z,0.30
2023-04-01T18:08:52.247Z,0.13
2023-04-01T18:11:36.509Z,0.10
2023-04-01T18:14:45.552Z,0.10
2023-04-01T18:17:27.834Z,0.13
2023-04-01T18:20:17.300Z,0.20
2023-04-01T18:22:49.455Z,0.10
2023-04-01T18:25:25.837Z,0.20
2023-04-01T18:28:14.912Z,0.20
2023-04-01T18:30:52.271Z,0.20
2023-04-01T18:33:27.649Z,0.32
2023-04-01T18:36:05.723Z,0.28
2023-04-01T18:38:41.477Z,0.20
2023-04-01T18:41:28.571Z,0.40
2023-04-01T18:44:09.910Z,0.30
2023-04-01T18:46:48.402Z,0.20
2023-04-01T18:49:23.690Z,0.20
2023-04-01T18:51:58.385Z,0.10
2023-04-01T18:54:33.391Z,0.30
2023-04-01T18:57:10.494Z,0.22
2023-04-01T18:59:44.507Z,0.10
2023-04-01T19:02:33.436Z,0.28
2023-04-01T19:05:08.125Z,0.20
2023-04-01T19:07:49.436Z,0.25
2023-04-01T19:10:39.534Z,0.20
2023-04-01T19:13:24.354Z,0.30
2023-04-01T19:16:01.440Z,0.20
2023-04-01T19:19:15.444Z,0.20
2023-04-01T19:21:48.668Z,0.28
2023-04-01T19:24:54.603Z,0.20
2023-04-01T19:27:33.433Z,0.30
2023-04-01T19:30:17.508Z,0.20
2023-04-01T19:32:55.198Z,0.22
2023-04-01T19:35:38.382Z,0.20
2023-04-01T19:38:17.190Z,0.30
2023-04-01T19:40:55.379Z,0.30
2023-04-01T19:43:49.390Z,0.10
2023-04-01T19:46:27.053Z,0.25
2023-04-01T19:49:28.019Z,0.30
2023-04-01T19:52:06.595Z,0.22
2023-04-01T19:54:45.837Z,0.28
2023-04-01T19:57:24.748Z,0.28
2023-04-01T19:59:59.371Z,0.30
2023-04-01T20:02:42.103Z,0.20
2023-04-01T20:05:29.534Z,0.20
2023-04-01T20:08:09.434Z,0.30
2023-04-01T20:10:46.129Z,0.30
2023-04-01T20:13:24.092Z,0.20
2023-04-01T20:16:03.874Z,0.22
2023-04-01T20:18:42.909Z,0.38
2023-04-01T20:21:27.102Z,0.30
2023-04-01T20:24:00.688Z,0.28
2023-04-01T20:26:34.440Z,0.22
2023-04-01T20:29:37.675Z,0.88
2023-04-01T20:32:18.281Z,0.20
2023-04-01T20:35:19.453Z,0.40
2023-04-01T20:37:55.877Z,0.20
2023-04-01T20:40:39.318Z,0.30
2023-04-01T20:43:33.146Z,0.30
2023-04-01T20:46:07.959Z,0.17
2023-04-01T20:49:01.407Z,0.35
2023-04-01T20:51:34.508Z,0.40
2023-04-01T20:54:18.525Z,0.30
2023-04-01T20:56:59.798Z,0.25
2023-04-01T20:59:47.434Z,0.20
2023-04-01T21:02:37.065Z,0.20
2023-04-01T21:05:42.771Z,0.40
2023-04-01T21:08:19.647Z,0.30
2023-04-01T21:10:57.069Z,0.30
2023-04-01T21:13:41.146Z,0.22
2023-04-01T21:16:26.229Z,0.30
2023-04-01T21:19:20.264Z,0.30
2023-04-01T21:22:02.714Z,0.20
2023-04-01T21:24:53.702Z,0.30
2023-04-01T21:27:41.533Z,0.20
2023-04-01T21:30:36.387Z,0.10
2023-04-01T21:33:19.379Z,0.30
2023-04-01T21:35:57.817Z,0.20
2023-04-01T21:38:42.865Z,0.20
2023-04-01T21:41:37.486Z,0.40
2023-04-01T21:44:42.392Z,0.40
2023-04-01T21:47:51.351Z,0.40
2023-04-01T21:50:50.418Z,0.30
2023-04-01T21:53:46.969Z,0.30
2023-04-01T21:56:59.583Z,0.30
2023-04-01T22:00:02.642Z,0.30
2023-04-01T22:03:00.379Z,0.30
2023-04-01T22:05:33.632Z,0.40
2023-04-01T22:08:15.547Z,0.40
2023-04-01T22:10:53.614Z,0.20
2023-04-01T22:13:30.201Z,0.30
2023-04-01T22:16:10.649Z,0.32
2023-04-01T22:18:45.090Z,0.20
2023-04-01T22:21:22.515Z,0.30
2023-04-01T22:23:59.957Z,0.40
2023-04-01T22:26:36.349Z,0.30
2023-04-01T22:29:10.863Z,0.38
2023-04-01T22:31:47.451Z,0.30
2023-04-01T22:34:23.699Z,0.30
2023-04-01T22:37:00.358Z,0.20
2023-04-01T22:39:47.496Z,0.50
2023-04-01T22:42:34.164Z,0.30
2023-04-01T22:45:22.305Z,0.28
2023-04-01T22:48:02.709Z,0.35
2023-04-01T22:51:04.584Z,0.30
2023-04-01T22:53:49.741Z,0.32
2023-04-01T22:56:24.420Z,0.40
2023-04-01T22:59:01.138Z,0.28
2023-04-01T23:01:35.662Z,0.40
2023-04-01T23:04:07.529Z,0.30
2023-04-01T23:06:42.495Z,0.30
2023-04-01T23:09:17.127Z,0.20
2023-04-01T23:11:52.821Z,0.20
2023-04-01T23:14:44.731Z,0.30
2023-04-01T23:17:41.578Z,0.30
2023-04-01T23:20:34.731Z,0.20
2023-04-01T23:23:22.368Z,0.40
2023-04-01T23:26:02.537Z,0.30
2023-04-01T23:28:50.286Z,0.32
2023-04-01T23:31:38.720Z,0.30
2023-04-01T23:34:27.301Z,0.28
2023-04-01T23:36:59.374Z,0.30
2023-04-01T23:39:33.163Z,0.30
2023-04-01T23:42:06.313Z,0.30
2023-04-01T23:44:38.660Z,0.30
2023-04-01T23:47:10.894Z,0.30
2023-04-01T23:49:44.061Z,0.30
2023-04-01T23:52:19.537Z,0.28
2023-04-01T23:54:53.853Z,0.30
2023-04-01T23:57:28.866Z,0.30
